sensor_id;sensor_type;location;lat;lon;timestamp;pressure;altitude;pressure_sealevel;temperature;humidity
43838;BME280;65998;46.256;7.534;2023-03-18T00:01:03;86685.53;;;18.96;65.59
43838;BME280;65998;46.256;7.534;2023-03-18T00:03:31;86677.19;;;18.96;65.49
43838;BME280;65998;46.256;7.534;2023-03-18T00:06:05;86683.91;;;19.01;65.27
43838;BME280;65998;46.256;7.534;2023-03-18T00:08:32;86680.16;;;18.92;65.45
43838;BME280;65998;46.256;7.534;2023-03-18T00:10:58;86686.38;;;18.92;65.30
43838;BME280;65998;46.256;7.534;2023-03-18T00:13:25;86691.19;;;18.94;65.27
43838;BME280;65998;46.256;7.534;2023-03-18T00:15:52;86693.97;;;18.94;65.23
43838;BME280;65998;46.256;7.534;2023-03-18T00:18:18;86697.63;;;18.90;65.15
43838;BME280;65998;46.256;7.534;2023-03-18T00:20:44;86685.13;;;18.89;65.01
43838;BME280;65998;46.256;7.534;2023-03-18T00:23:11;86696.94;;;18.90;64.96
43838;BME280;65998;46.256;7.534;2023-03-18T00:25:37;86700.41;;;18.90;64.94
43838;BME280;65998;46.256;7.534;2023-03-18T00:28:05;86705.28;;;18.90;64.95
43838;BME280;65998;46.256;7.534;2023-03-18T00:30:31;86705.47;;;18.86;64.76
43838;BME280;65998;46.256;7.534;2023-03-18T00:32:58;86710.28;;;18.87;64.86
43838;BME280;65998;46.256;7.534;2023-03-18T00:35:25;86709.59;;;18.87;64.75
43838;BME280;65998;46.256;7.534;2023-03-18T00:37:51;86713.16;;;18.85;64.54
43838;BME280;65998;46.256;7.534;2023-03-18T00:40:17;86715.94;;;18.85;64.44
43838;BME280;65998;46.256;7.534;2023-03-18T00:42:43;86706.91;;;18.85;64.55
43838;BME280;65998;46.256;7.534;2023-03-18T00:45:09;86708.16;;;18.88;64.38
43838;BME280;65998;46.256;7.534;2023-03-18T00:47:36;86706.81;;;18.87;64.27
43838;BME280;65998;46.256;7.534;2023-03-18T00:50:01;86704.13;;;18.85;64.08
43838;BME280;65998;46.256;7.534;2023-03-18T00:52:27;86705.56;;;18.84;64.07
43838;BME280;65998;46.256;7.534;2023-03-18T00:54:53;86704.22;;;18.83;64.03
43838;BME280;65998;46.256;7.534;2023-03-18T00:57:19;86704.22;;;18.83;63.68
43838;BME280;65998;46.256;7.534;2023-03-18T00:59:45;86695.88;;;18.83;63.29
43838;BME280;65998;46.256;7.534;2023-03-18T01:02:11;86702.88;;;18.81;63.33
43838;BME280;65998;46.256;7.534;2023-03-18T01:04:37;86698.75;;;18.80;63.10
43838;BME280;65998;46.256;7.534;2023-03-18T01:07:03;86694.59;;;18.79;62.57
43838;BME280;65998;46.256;7.534;2023-03-18T01:09:28;86693.16;;;18.80;62.39
43838;BME280;65998;46.256;7.534;2023-03-18T01:11:54;86686.25;;;18.79;62.31
43838;BME280;65998;46.256;7.534;2023-03-18T01:14:20;86691.06;;;18.81;62.41
43838;BME280;65998;46.256;7.534;2023-03-18T01:16:46;86689.72;;;18.80;61.98
43838;BME280;65998;46.256;7.534;2023-03-18T01:19:13;86693.16;;;18.80;61.72
43838;BME280;65998;46.256;7.534;2023-03-18T01:21:39;86686.25;;;18.79;61.43
43838;BME280;65998;46.256;7.534;2023-03-18T01:24:05;86684.16;;;18.80;61.13
43838;BME280;65998;46.256;7.534;2023-03-18T01:26:32;86682.22;;;18.76;60.83
43838;BME280;65998;46.256;7.534;2023-03-18T01:28:58;86678.25;;;18.71;61.08
43838;BME280;65998;46.256;7.534;2023-03-18T01:31:24;86670.06;;;18.67;61.02
43838;BME280;65998;46.256;7.534;2023-03-18T01:33:51;86676.22;;;18.70;60.80
43838;BME280;65998;46.256;7.534;2023-03-18T01:36:17;86663.16;;;18.66;60.81
43838;BME280;65998;46.256;7.534;2023-03-18T01:38:43;86672.94;;;18.65;60.60
43838;BME280;65998;46.256;7.534;2023-03-18T01:41:10;86665.84;;;18.68;60.49
43838;BME280;65998;46.256;7.534;2023-03-18T01:43:38;86660.97;;;18.69;60.38
43838;BME280;65998;46.256;7.534;2023-03-18T01:48:52;86660.47;;;18.64;60.12
43838;BME280;65998;46.256;7.534;2023-03-18T01:51:18;86656.91;;;18.66;59.96
43838;BME280;65998;46.256;7.534;2023-03-18T01:53:47;86657.59;;;18.66;59.90
43838;BME280;65998;46.256;7.534;2023-03-18T01:56:15;86652.88;;;18.63;59.76
43838;BME280;65998;46.256;7.534;2023-03-18T01:58:44;86657.59;;;18.66;59.71
43838;BME280;65998;46.256;7.534;2023-03-18T02:01:24;86653.47;;;18.65;59.63
43838;BME280;65998;46.256;7.534;2023-03-18T02:03:51;86647.31;;;18.63;59.48
43838;BME280;65998;46.256;7.534;2023-03-18T02:06:18;86643.84;;;18.62;59.34
43838;BME280;65998;46.256;7.534;2023-03-18T02:08:44;86647.47;;;18.59;59.27
43838;BME280;65998;46.256;7.534;2023-03-18T02:11:11;86641.13;;;18.60;59.29
43838;BME280;65998;46.256;7.534;2023-03-18T02:13:40;86637.63;;;18.62;59.02
43838;BME280;65998;46.256;7.534;2023-03-18T02:16:18;86632.72;;;18.62;58.96
43838;BME280;65998;46.256;7.534;2023-03-18T02:18:54;86638.97;;;18.63;58.80
43838;BME280;65998;46.256;7.534;2023-03-18T02:29:04;86624.53;;;18.58;58.49
43838;BME280;65998;46.256;7.534;2023-03-18T02:31:35;86625.19;;;18.59;58.46
43838;BME280;65998;46.256;7.534;2023-03-18T02:34:01;86628.16;;;18.55;58.22
43838;BME280;65998;46.256;7.534;2023-03-18T02:36:28;86627.41;;;18.56;58.12
43838;BME280;65998;46.256;7.534;2023-03-18T02:38:56;86621.25;;;18.54;57.96
43838;BME280;65998;46.256;7.534;2023-03-18T02:41:28;86618.38;;;18.56;57.93
43838;BME280;65998;46.256;7.534;2023-03-18T02:43:55;86613.00;;;18.51;57.83
43838;BME280;65998;46.256;7.534;2023-03-18T02:49:07;86614.34;;;18.52;57.60
43838;BME280;65998;46.256;7.534;2023-03-18T02:51:35;86610.78;;;18.54;57.52
43838;BME280;65998;46.256;7.534;2023-03-18T02:54:08;86608.00;;;18.54;57.38
43838;BME280;65998;46.256;7.534;2023-03-18T02:56:39;86618.47;;;18.54;57.29
43838;BME280;65998;46.256;7.534;2023-03-18T02:59:06;86611.75;;;18.48;57.23
43838;BME280;65998;46.256;7.534;2023-03-18T03:01:33;86615.09;;;18.51;57.31
43838;BME280;65998;46.256;7.534;2023-03-18T03:04:00;86614.44;;;18.50;57.13
43838;BME280;65998;46.256;7.534;2023-03-18T03:06:26;86613.19;;;18.47;57.05
43838;BME280;65998;46.256;7.534;2023-03-18T03:08:52;86609.72;;;18.47;56.89
43838;BME280;65998;46.256;7.534;2023-03-18T03:11:18;86612.50;;;18.47;56.57
43838;BME280;65998;46.256;7.534;2023-03-18T03:13:44;86613.94;;;18.46;56.81
43838;BME280;65998;46.256;7.534;2023-03-18T03:18:51;86613.25;;;18.45;56.67
43838;BME280;65998;46.256;7.534;2023-03-18T03:21:17;86616.03;;;18.45;56.55
43838;BME280;65998;46.256;7.534;2023-03-18T03:23:44;86615.28;;;18.47;56.46
43838;BME280;65998;46.256;7.534;2023-03-18T03:26:10;86609.81;;;18.45;56.39
43838;BME280;65998;46.256;7.534;2023-03-18T03:28:36;86623.72;;;18.45;56.32
43838;BME280;65998;46.256;7.534;2023-03-18T03:31:03;86620.94;;;18.45;56.23
43838;BME280;65998;46.256;7.534;2023-03-18T03:33:28;86618.34;;;18.41;56.12
43838;BME280;65998;46.256;7.534;2023-03-18T03:35:55;86623.91;;;18.41;55.97
43838;BME280;65998;46.256;7.534;2023-03-18T03:38:20;86630.81;;;18.42;55.94
43838;BME280;65998;46.256;7.534;2023-03-18T03:40:46;86621.88;;;18.39;55.96
43838;BME280;65998;46.256;7.534;2023-03-18T03:43:13;86627.34;;;18.41;55.72
43838;BME280;65998;46.256;7.534;2023-03-18T03:45:40;86619.09;;;18.39;55.71
43838;BME280;65998;46.256;7.534;2023-03-18T03:48:06;86621.22;;;18.39;55.74
43838;BME280;65998;46.256;7.534;2023-03-18T03:50:33;86618.41;;;18.39;55.54
43838;BME280;65998;46.256;7.534;2023-03-18T03:53:00;86627.44;;;18.39;55.58
43838;BME280;65998;46.256;7.534;2023-03-18T03:55:26;86630.41;;;18.35;55.57
43838;BME280;65998;46.256;7.534;2023-03-18T03:57:52;86624.16;;;18.35;55.46
43838;BME280;65998;46.256;7.534;2023-03-18T04:00:21;86637.22;;;18.38;55.30
43838;BME280;65998;46.256;7.534;2023-03-18T04:02:49;86633.19;;;18.35;55.27
43838;BME280;65998;46.256;7.534;2023-03-18T04:05:17;86631.84;;;18.34;55.27
43838;BME280;65998;46.256;7.534;2023-03-18T04:07:44;86630.50;;;18.33;55.21
43838;BME280;65998;46.256;7.534;2023-03-18T04:10:12;86636.06;;;18.33;55.07
43838;BME280;65998;46.256;7.534;2023-03-18T04:12:38;86635.56;;;18.29;55.05
43838;BME280;65998;46.256;7.534;2023-03-18T04:15:06;86638.91;;;18.31;55.16
43838;BME280;65998;46.256;7.534;2023-03-18T04:17:33;86632.69;;;18.31;55.06
43838;BME280;65998;46.256;7.534;2023-03-18T04:19:59;86629.22;;;18.30;54.79
43838;BME280;65998;46.256;7.534;2023-03-18T04:22:25;86627.97;;;18.27;54.98
43838;BME280;65998;46.256;7.534;2023-03-18T04:24:51;86620.31;;;18.28;54.95
43838;BME280;65998;46.256;7.534;2023-03-18T04:27:17;86632.19;;;18.26;54.91
43838;BME280;65998;46.256;7.534;2023-03-18T04:29:43;86633.53;;;18.27;54.78
43838;BME280;65998;46.256;7.534;2023-03-18T04:32:10;86628.66;;;18.28;54.78
43838;BME280;65998;46.256;7.534;2023-03-18T04:34:36;86632.28;;;18.24;54.76
43838;BME280;65998;46.256;7.534;2023-03-18T04:37:02;86631.59;;;18.24;54.71
43838;BME280;65998;46.256;7.534;2023-03-18T04:39:28;86631.59;;;18.24;54.70
43838;BME280;65998;46.256;7.534;2023-03-18T04:41:54;86623.25;;;18.24;54.65
43838;BME280;65998;46.256;7.534;2023-03-18T04:44:20;86624.03;;;18.22;54.52
43838;BME280;65998;46.256;7.534;2023-03-18T04:46:46;86624.03;;;18.22;54.54
43838;BME280;65998;46.256;7.534;2023-03-18T04:49:12;86623.44;;;18.19;54.53
43838;BME280;65998;46.256;7.534;2023-03-18T04:51:38;86622.00;;;18.21;54.74
43838;BME280;65998;46.256;7.534;2023-03-18T04:54:04;86622.75;;;18.19;54.73
43838;BME280;65998;46.256;7.534;2023-03-18T04:56:30;86629.66;;;18.20;54.76
43838;BME280;65998;46.256;7.534;2023-03-18T04:58:56;86627.66;;;18.18;54.75
43838;BME280;65998;46.256;7.534;2023-03-18T05:01:22;86631.19;;;18.17;54.64
43838;BME280;65998;46.256;7.534;2023-03-18T05:03:48;86632.63;;;18.16;54.46
43838;BME280;65998;46.256;7.534;2023-03-18T05:06:26;86628.22;;;18.21;54.05
43838;BME280;65998;46.256;7.534;2023-03-18T05:08:52;86627.81;;;18.14;53.87
43838;BME280;65998;46.256;7.534;2023-03-18T05:11:19;86625.44;;;18.21;53.74
43838;BME280;65998;46.256;7.534;2023-03-18T05:13:46;86623.44;;;18.19;54.33
43838;BME280;65998;46.256;7.534;2023-03-18T05:16:12;86624.19;;;18.18;54.52
43838;BME280;65998;46.256;7.534;2023-03-18T05:18:38;86622.66;;;18.21;54.44
43838;BME280;65998;46.256;7.534;2023-03-18T05:21:04;86621.31;;;18.20;54.26
43838;BME280;65998;46.256;7.534;2023-03-18T05:23:30;86628.31;;;18.19;54.20
43838;BME280;65998;46.256;7.534;2023-03-18T05:25:56;86624.88;;;18.18;54.09
43838;BME280;65998;46.256;7.534;2023-03-18T05:28:22;86631.19;;;18.17;54.13
43838;BME280;65998;46.256;7.534;2023-03-18T05:30:48;86627.06;;;18.16;54.12
43838;BME280;65998;46.256;7.534;2023-03-18T05:33:14;86631.28;;;18.15;54.10
43838;BME280;65998;46.256;7.534;2023-03-18T05:35:40;86620.16;;;18.15;54.12
43838;BME280;65998;46.256;7.534;2023-03-18T05:38:06;86628.56;;;18.13;54.07
43838;BME280;65998;46.256;7.534;2023-03-18T05:40:32;86622.25;;;18.14;53.96
43838;BME280;65998;46.256;7.534;2023-03-18T05:42:59;86621.66;;;18.12;53.86
43838;BME280;65998;46.256;7.534;2023-03-18T05:45:24;86629.25;;;18.13;53.78
43838;BME280;65998;46.256;7.534;2023-03-18T05:47:51;86623.69;;;18.13;53.68
43838;BME280;65998;46.256;7.534;2023-03-18T05:50:33;86620.81;;;18.15;53.59
43838;BME280;65998;46.256;7.534;2023-03-18T05:52:59;86616.78;;;18.12;53.52
43838;BME280;65998;46.256;7.534;2023-03-18T05:55:26;86618.13;;;18.13;53.47
43838;BME280;65998;46.256;7.534;2023-03-18T05:57:53;86627.22;;;18.12;53.42
43838;BME280;65998;46.256;7.534;2023-03-18T06:00:19;86625.88;;;18.11;53.45
43838;BME280;65998;46.256;7.534;2023-03-18T06:02:46;86623.78;;;18.11;53.39
43838;BME280;65998;46.256;7.534;2023-03-18T06:05:13;86631.53;;;18.09;53.34
43838;BME280;65998;46.256;7.534;2023-03-18T06:07:39;86632.97;;;18.08;53.41
43838;BME280;65998;46.256;7.534;2023-03-18T06:10:06;86632.28;;;18.07;53.38
43838;BME280;65998;46.256;7.534;2023-03-18T06:12:33;86635.16;;;18.05;53.30
43838;BME280;65998;46.256;7.534;2023-03-18T06:14:58;86641.47;;;18.04;53.42
43838;BME280;65998;46.256;7.534;2023-03-18T06:17:24;86638.03;;;18.03;53.37
43838;BME280;65998;46.256;7.534;2023-03-18T06:19:50;86640.22;;;18.01;53.18
43838;BME280;65998;46.256;7.534;2023-03-18T06:22:16;86640.31;;;17.99;53.11
43838;BME280;65998;46.256;7.534;2023-03-18T06:24:42;86641.66;;;18.00;52.78
43838;BME280;65998;46.256;7.534;2023-03-18T06:27:08;86645.34;;;18.11;52.57
43838;BME280;65998;46.256;7.534;2023-03-18T06:29:34;86641.13;;;18.12;52.27
43838;BME280;65998;46.256;7.534;2023-03-18T06:32:00;86639.78;;;18.11;52.12
43838;BME280;65998;46.256;7.534;2023-03-18T06:34:26;86639.88;;;18.09;52.06
43838;BME280;65998;46.256;7.534;2023-03-18T06:36:52;86641.22;;;18.10;52.12
43838;BME280;65998;46.256;7.534;2023-03-18T06:39:18;86639.13;;;18.10;52.11
43838;BME280;65998;46.256;7.534;2023-03-18T06:41:45;86640.56;;;18.09;52.09
43838;BME280;65998;46.256;7.534;2023-03-18T06:44:11;86640.63;;;18.07;51.94
43838;BME280;65998;46.256;7.534;2023-03-18T06:46:37;86635.84;;;18.06;51.80
43838;BME280;65998;46.256;7.534;2023-03-18T06:49:03;86640.72;;;18.05;51.79
43838;BME280;65998;46.256;7.534;2023-03-18T06:51:29;86641.47;;;18.04;51.76
43838;BME280;65998;46.256;7.534;2023-03-18T06:53:55;86633.91;;;18.02;51.63
43838;BME280;65998;46.256;7.534;2023-03-18T06:56:21;86631.78;;;18.03;51.85
43838;BME280;65998;46.256;7.534;2023-03-18T06:58:47;86633.22;;;18.02;51.98
43838;BME280;65998;46.256;7.534;2023-03-18T07:01:13;86633.22;;;18.02;51.84
43838;BME280;65998;46.256;7.534;2023-03-18T07:03:39;86632.56;;;18.01;52.31
43838;BME280;65998;46.256;7.534;2023-03-18T07:06:06;86631.78;;;18.03;52.76
43838;BME280;65998;46.256;7.534;2023-03-18T07:08:32;86627.84;;;17.98;52.88
43838;BME280;65998;46.256;7.534;2023-03-18T07:10:58;86633.31;;;18.00;52.83
43838;BME280;65998;46.256;7.534;2023-03-18T07:13:24;86632.63;;;17.99;53.11
43838;BME280;65998;46.256;7.534;2023-03-18T07:15:50;86641.66;;;18.00;53.01
43838;BME280;65998;46.256;7.534;2023-03-18T07:18:16;86638.19;;;17.99;53.12
43838;BME280;65998;46.256;7.534;2023-03-18T07:20:42;86640.97;;;17.99;53.33
43838;BME280;65998;46.256;7.534;2023-03-18T07:23:07;86635.41;;;17.99;53.50
43838;BME280;65998;46.256;7.534;2023-03-18T07:25:33;86638.97;;;17.98;53.34
43838;BME280;65998;46.256;7.534;2023-03-18T07:27:59;86645.19;;;17.98;53.30
43838;BME280;65998;46.256;7.534;2023-03-18T07:30:26;86643.75;;;17.99;53.39
43838;BME280;65998;46.256;7.534;2023-03-18T07:32:52;86646.63;;;17.97;53.45
43838;BME280;65998;46.256;7.534;2023-03-18T07:35:18;86645.94;;;17.97;53.69
43838;BME280;65998;46.256;7.534;2023-03-18T07:37:44;86653.94;;;18.05;52.70
43838;BME280;65998;46.256;7.534;2023-03-18T07:40:11;86647.88;;;18.17;52.03
43838;BME280;65998;46.256;7.534;2023-03-18T07:42:37;86647.88;;;18.17;51.24
43838;BME280;65998;46.256;7.534;2023-03-18T07:45:05;86653.44;;;18.17;50.60
43838;BME280;65998;46.256;7.534;2023-03-18T07:47:31;86654.28;;;18.13;50.87
43838;BME280;65998;46.256;7.534;2023-03-18T07:49:57;86636.25;;;18.12;51.38
43838;BME280;65998;46.256;7.534;2023-03-18T07:52:23;86640.38;;;18.13;51.81
43838;BME280;65998;46.256;7.534;2023-03-18T07:54:49;86643.16;;;18.13;51.55
43838;BME280;65998;46.256;7.534;2023-03-18T07:57:15;86639.03;;;18.12;51.03
43838;BME280;65998;46.256;7.534;2023-03-18T07:59:41;86634.81;;;18.13;51.15
43838;BME280;65998;46.256;7.534;2023-03-18T08:02:07;86630.88;;;18.08;49.56
43838;BME280;65998;46.256;7.534;2023-03-18T08:04:35;86636.41;;;18.08;49.69
43838;BME280;65998;46.256;7.534;2023-03-18T08:07:01;86635.84;;;18.06;49.93
43838;BME280;65998;46.256;7.534;2023-03-18T08:09:27;86632.97;;;18.08;49.81
43838;BME280;65998;46.256;7.534;2023-03-18T08:11:53;86641.97;;;18.08;49.89
43838;BME280;65998;46.256;7.534;2023-03-18T08:14:19;86641.91;;;18.10;50.38
43838;BME280;65998;46.256;7.534;2023-03-18T08:16:45;86635.50;;;18.14;50.73
43838;BME280;65998;46.256;7.534;2023-03-18T08:19:11;86627.06;;;18.16;50.97
43838;BME280;65998;46.256;7.534;2023-03-18T08:21:37;86636.66;;;18.19;51.09
43838;BME280;65998;46.256;7.534;2023-03-18T08:24:03;86636.56;;;18.21;50.72
43838;BME280;65998;46.256;7.534;2023-03-18T08:26:30;86637.84;;;18.24;49.96
43838;BME280;65998;46.256;7.534;2023-03-18T08:28:56;86638.50;;;18.25;49.45
43838;BME280;65998;46.256;7.534;2023-03-18T08:31:21;86636.31;;;18.27;49.77
43838;BME280;65998;46.256;7.534;2023-03-18T08:33:48;86633.53;;;18.27;49.16
43838;BME280;65998;46.256;7.534;2023-03-18T08:36:14;86634.69;;;18.32;48.85
43838;BME280;65998;46.256;7.534;2023-03-18T08:38:41;86631.91;;;18.32;48.91
43838;BME280;65998;46.256;7.534;2023-03-18T08:41:06;86636.72;;;18.34;49.03
43838;BME280;65998;46.256;7.534;2023-03-18T08:43:32;86641.53;;;18.35;48.48
43838;BME280;65998;46.256;7.534;2023-03-18T08:45:58;86632.41;;;18.37;48.23
43838;BME280;65998;46.256;7.534;2023-03-18T08:48:24;86634.44;;;18.38;48.51
43838;BME280;65998;46.256;7.534;2023-03-18T08:50:50;86634.34;;;18.40;48.48
43838;BME280;65998;46.256;7.534;2023-03-18T08:53:17;86628.69;;;18.42;47.97
43838;BME280;65998;46.256;7.534;2023-03-18T08:55:43;86623.81;;;18.43;47.96
43838;BME280;65998;46.256;7.534;2023-03-18T08:58:09;86631.41;;;18.44;48.17
43838;BME280;65998;46.256;7.534;2023-03-18T09:00:37;86627.00;;;18.49;48.57
43838;BME280;65998;46.256;7.534;2023-03-18T09:03:04;86624.88;;;18.50;49.41
43838;BME280;65998;46.256;7.534;2023-03-18T09:05:31;86618.47;;;18.54;50.14
43838;BME280;65998;46.256;7.534;2023-03-18T09:07:57;86624.78;;;18.52;51.00
43838;BME280;65998;46.256;7.534;2023-03-18T09:10:24;86619.06;;;18.56;51.38
43838;BME280;65998;46.256;7.534;2023-03-18T09:12:50;86623.19;;;18.57;51.85
43838;BME280;65998;46.256;7.534;2023-03-18T09:15:17;86623.69;;;18.62;52.51
43838;BME280;65998;46.256;7.534;2023-03-18T09:17:43;86620.25;;;18.61;53.90
43838;BME280;65998;46.256;7.534;2023-03-18T09:20:11;86613.97;;;18.61;53.84
43838;BME280;65998;46.256;7.534;2023-03-18T09:22:40;86613.16;;;18.64;53.31
43838;BME280;65998;46.256;7.534;2023-03-18T09:25:07;86610.38;;;18.64;53.14
43838;BME280;65998;46.256;7.534;2023-03-18T09:27:33;86613.06;;;18.66;53.05
43838;BME280;65998;46.256;7.534;2023-03-18T09:29:59;86603.13;;;18.55;48.49
43838;BME280;65998;46.256;7.534;2023-03-18T09:32:25;86608.19;;;18.50;45.66
43838;BME280;65998;46.256;7.534;2023-03-18T09:34:52;86609.63;;;18.49;43.57
43838;BME280;65998;46.256;7.534;2023-03-18T09:37:18;86603.75;;;18.40;42.18
43838;BME280;65998;46.256;7.534;2023-03-18T09:39:44;86608.72;;;18.38;42.38
43838;BME280;65998;46.256;7.534;2023-03-18T09:42:23;86610.56;;;18.43;42.91
43838;BME280;65998;46.256;7.534;2023-03-18T09:44:56;86611.84;;;18.46;44.03
43838;BME280;65998;46.256;7.534;2023-03-18T09:53:40;86609.19;;;18.59;46.49
43838;BME280;65998;46.256;7.534;2023-03-18T09:56:15;86601.50;;;18.60;46.86
43838;BME280;65998;46.256;7.534;2023-03-18T09:58:57;86602.13;;;18.62;46.68
43838;BME280;65998;46.256;7.534;2023-03-18T10:01:26;86599.34;;;18.62;46.29
43838;BME280;65998;46.256;7.534;2023-03-18T10:04:03;86594.25;;;18.67;46.40
43838;BME280;65998;46.256;7.534;2023-03-18T10:06:30;86596.47;;;18.64;46.63
43838;BME280;65998;46.256;7.534;2023-03-18T10:17:22;86584.78;;;18.76;45.71
43838;BME280;65998;46.256;7.534;2023-03-18T10:19:56;86582.09;;;18.74;45.45
43838;BME280;65998;46.256;7.534;2023-03-18T10:25:24;86585.66;;;18.73;45.44
43838;BME280;65998;46.256;7.534;2023-03-18T10:30:53;86577.69;;;18.79;44.93
43838;BME280;65998;46.256;7.534;2023-03-18T10:36:58;86567.06;;;18.84;44.83
43838;BME280;65998;46.256;7.534;2023-03-18T10:39:30;86565.03;;;18.83;45.26
43838;BME280;65998;46.256;7.534;2023-03-18T10:42:00;86566.97;;;18.86;45.63
43838;BME280;65998;46.256;7.534;2023-03-18T10:44:35;86565.41;;;18.89;46.00
43838;BME280;65998;46.256;7.534;2023-03-18T10:47:12;86546.69;;;18.88;43.64
43838;BME280;65998;46.256;7.534;2023-03-18T10:49:42;86557.25;;;18.85;42.76
43838;BME280;65998;46.256;7.534;2023-03-18T10:52:50;86551.59;;;18.87;43.05
43838;BME280;65998;46.256;7.534;2023-03-18T10:55:23;86550.84;;;18.89;43.78
43838;BME280;65998;46.256;7.534;2023-03-18T10:57:50;86552.38;;;18.86;44.52
43838;BME280;65998;46.256;7.534;2023-03-18T11:00:28;86552.75;;;18.92;44.85
43838;BME280;65998;46.256;7.534;2023-03-18T11:02:55;86544.59;;;18.88;45.01
43838;BME280;65998;46.256;7.534;2023-03-18T11:10:31;86554.09;;;18.93;43.67
43838;BME280;65998;46.256;7.534;2023-03-18T11:13:02;86555.53;;;18.92;43.29
43838;BME280;65998;46.256;7.534;2023-03-18T11:15:49;86549.09;;;18.96;43.12
43838;BME280;65998;46.256;7.534;2023-03-18T11:18:18;86554.78;;;18.94;42.92
43838;BME280;65998;46.256;7.534;2023-03-18T11:20:46;86545.94;;;18.89;42.40
43838;BME280;65998;46.256;7.534;2023-03-18T11:23:15;86548.44;;;18.95;42.65
43838;BME280;65998;46.256;7.534;2023-03-18T11:25:45;86548.44;;;18.95;42.41
43838;BME280;65998;46.256;7.534;2023-03-18T11:28:28;86549.88;;;18.94;41.01
43838;BME280;65998;46.256;7.534;2023-03-18T11:30:55;86552.09;;;18.92;40.56
43838;BME280;65998;46.256;7.534;2023-03-18T11:33:29;86544.31;;;18.94;40.38
43838;BME280;65998;46.256;7.534;2023-03-18T11:36:04;86545.75;;;18.93;40.04
43838;BME280;65998;46.256;7.534;2023-03-18T11:38:32;86542.28;;;18.93;40.68
43838;BME280;65998;46.256;7.534;2023-03-18T11:43:31;86548.72;;;18.89;41.31
43838;BME280;65998;46.256;7.534;2023-03-18T11:45:59;86547.75;;;18.95;41.59
43838;BME280;65998;46.256;7.534;2023-03-18T11:48:33;86542.97;;;18.93;41.35
43838;BME280;65998;46.256;7.534;2023-03-18T11:56:34;86540.09;;;18.95;41.14
43838;BME280;65998;46.256;7.534;2023-03-18T11:59:23;86541.44;;;18.96;41.65
43838;BME280;65998;46.256;7.534;2023-03-18T12:07:21;86527.13;;;18.90;42.40
43838;BME280;65998;46.256;7.534;2023-03-18T12:10:05;86525.41;;;18.97;42.62
43838;BME280;65998;46.256;7.534;2023-03-18T12:15:54;86514.84;;;18.99;43.04
43838;BME280;65998;46.256;7.534;2023-03-18T12:38:41;86493.59;;;19.06;43.10
43838;BME280;65998;46.256;7.534;2023-03-18T12:41:15;86492.94;;;19.06;43.13
43838;BME280;65998;46.256;7.534;2023-03-18T12:46:47;86496.28;;;19.08;43.24
43838;BME280;65998;46.256;7.534;2023-03-18T12:49:47;86494.09;;;19.11;43.31
43838;BME280;65998;46.256;7.534;2023-03-18T12:52:28;86484.38;;;19.10;43.30
43838;BME280;65998;46.256;7.534;2023-03-18T12:55:04;86489.97;;;19.10;42.96
43838;BME280;65998;46.256;7.534;2023-03-18T12:57:50;86490.16;;;19.06;42.90
43838;BME280;65998;46.256;7.534;2023-03-18T13:00:23;86488.50;;;19.11;42.73
43838;BME280;65998;46.256;7.534;2023-03-18T13:02:57;86477.38;;;19.11;42.68
43838;BME280;65998;46.256;7.534;2023-03-18T13:05:40;86483.53;;;19.13;42.63
43838;BME280;65998;46.256;7.534;2023-03-18T13:08:40;86475.84;;;19.14;42.69
43838;BME280;65998;46.256;7.534;2023-03-18T13:11:27;86479.97;;;19.15;42.66
43838;BME280;65998;46.256;7.534;2023-03-18T13:14:02;86486.97;;;19.14;42.78
43838;BME280;65998;46.256;7.534;2023-03-18T13:16:31;86481.50;;;19.12;42.60
43838;BME280;65998;46.256;7.534;2023-03-18T13:18:58;86480.94;;;19.09;42.56
43838;BME280;65998;46.256;7.534;2023-03-18T13:21:29;86470.94;;;19.14;42.45
43838;BME280;65998;46.256;7.534;2023-03-18T13:29:56;86466.59;;;19.18;42.60
43838;BME280;65998;46.256;7.534;2023-03-18T13:42:59;86467.94;;;19.19;42.45
43838;BME280;65998;46.256;7.534;2023-03-18T13:45:37;86463.06;;;19.19;42.13
43838;BME280;65998;46.256;7.534;2023-03-18T13:48:33;86460.84;;;19.22;42.09
43838;BME280;65998;46.256;7.534;2023-03-18T13:51:17;86467.84;;;19.21;42.07
43838;BME280;65998;46.256;7.534;2023-03-18T13:53:46;86467.94;;;19.19;42.18
43838;BME280;65998;46.256;7.534;2023-03-18T13:56:32;86460.16;;;19.21;42.19
43838;BME280;65998;46.256;7.534;2023-03-18T14:02:40;86467.75;;;19.23;42.32
43838;BME280;65998;46.256;7.534;2023-03-18T14:13:50;86448.25;;;19.23;42.16
43838;BME280;65998;46.256;7.534;2023-03-18T14:16:20;86442.69;;;19.23;41.83
43838;BME280;65998;46.256;7.534;2023-03-18T14:18:59;86446.16;;;19.23;41.58
43838;BME280;65998;46.256;7.534;2023-03-18T14:21:29;86450.38;;;19.22;41.68
43838;BME280;65998;46.256;7.534;2023-03-18T14:24:11;86452.28;;;19.26;41.41
43838;BME280;65998;46.256;7.534;2023-03-18T14:26:38;86449.13;;;19.19;41.12
43838;BME280;65998;46.256;7.534;2023-03-18T14:31:48;86437.22;;;19.21;40.88
43838;BME280;65998;46.256;7.534;2023-03-18T14:37:03;86444.22;;;19.20;39.75
43838;BME280;65998;46.256;7.534;2023-03-18T14:39:36;86448.34;;;19.21;39.20
43838;BME280;65998;46.256;7.534;2023-03-18T14:42:36;86452.50;;;19.22;38.88
43838;BME280;65998;46.256;7.534;2023-03-18T14:45:09;86452.00;;;19.17;39.25
43838;BME280;65998;46.256;7.534;2023-03-18T14:47:50;86452.38;;;19.24;39.33
43838;BME280;65998;46.256;7.534;2023-03-18T14:50:39;86451.03;;;19.23;39.04
43838;BME280;65998;46.256;7.534;2023-03-18T14:53:32;86446.81;;;19.24;39.19
43838;BME280;65998;46.256;7.534;2023-03-18T14:56:00;86445.66;;;19.19;39.15
43838;BME280;65998;46.256;7.534;2023-03-18T14:58:26;86444.44;;;19.16;39.24
43838;BME280;65998;46.256;7.534;2023-03-18T15:00:56;86438.66;;;19.20;39.50
43838;BME280;65998;46.256;7.534;2023-03-18T15:03:30;86442.13;;;19.20;39.61
43838;BME280;65998;46.256;7.534;2023-03-18T15:06:01;86442.22;;;19.18;39.87
43838;BME280;65998;46.256;7.534;2023-03-18T15:08:33;86448.47;;;19.19;39.85